sensor_id;sensor_type;location;lat;lon;timestamp;temperature;humidity
68556;HTU21D;55544;51.032;5.866;2023-03-14T00:02:09;11.94;81.17
68556;HTU21D;55544;51.032;5.866;2023-03-14T00:04:35;11.85;81.23
68556;HTU21D;55544;51.032;5.866;2023-03-14T00:07:00;11.77;81.27
68556;HTU21D;55544;51.032;5.866;2023-03-14T00:09:26;11.70;81.55
68556;HTU21D;55544;51.032;5.866;2023-03-14T00:11:55;11.73;81.43
68556;HTU21D;55544;51.032;5.866;2023-03-14T00:14:20;11.73;81.43
68556;HTU21D;55544;51.032;5.866;2023-03-14T00:16:46;11.68;80.94
68556;HTU21D;55544;51.032;5.866;2023-03-14T00:19:12;11.63;81.04
68556;HTU21D;55544;51.032;5.866;2023-03-14T00:21:38;11.56;80.81
68556;HTU21D;55544;51.032;5.866;2023-03-14T00:24:04;11.56;80.65
68556;HTU21D;55544;51.032;5.866;2023-03-14T00:26:29;11.53;80.61
68556;HTU21D;55544;51.032;5.866;2023-03-14T00:28:55;11.62;80.30
68556;HTU21D;55544;51.032;5.866;2023-03-14T00:31:22;11.59;80.17
68556;HTU21D;55544;51.032;5.866;2023-03-14T00:33:47;11.66;80.25
68556;HTU21D;55544;51.032;5.866;2023-03-14T00:36:16;11.75;79.71
68556;HTU21D;55544;51.032;5.866;2023-03-14T00:38:44;11.68;79.88
68556;HTU21D;55544;51.032;5.866;2023-03-14T00:41:12;11.76;79.44
68556;HTU21D;55544;51.032;5.866;2023-03-14T00:43:38;11.79;79.21
68556;HTU21D;55544;51.032;5.866;2023-03-14T00:46:04;11.72;79.44
68556;HTU21D;55544;51.032;5.866;2023-03-14T00:48:30;11.71;79.78
68556;HTU21D;55544;51.032;5.866;2023-03-14T00:50:56;11.74;79.09
68556;HTU21D;55544;51.032;5.866;2023-03-14T00:53:22;11.72;79.73
68556;HTU21D;55544;51.032;5.866;2023-03-14T00:55:48;11.74;79.78
68556;HTU21D;55544;51.032;5.866;2023-03-14T00:58:16;11.62;80.18
68556;HTU21D;55544;51.032;5.866;2023-03-14T01:00:44;11.68;80.02
68556;HTU21D;55544;51.032;5.866;2023-03-14T01:03:11;11.68;80.10
68556;HTU21D;55544;51.032;5.866;2023-03-14T01:05:38;11.76;79.94
68556;HTU21D;55544;51.032;5.866;2023-03-14T01:08:04;11.68;80.85
68556;HTU21D;55544;51.032;5.866;2023-03-14T01:10:37;11.73;80.94
68556;HTU21D;55544;51.032;5.866;2023-03-14T01:13:04;11.72;81.35
68556;HTU21D;55544;51.032;5.866;2023-03-14T01:15:29;11.71;81.63
68556;HTU21D;55544;51.032;5.866;2023-03-14T01:17:55;11.64;81.65
68556;HTU21D;55544;51.032;5.866;2023-03-14T01:20:22;11.70;81.46
68556;HTU21D;55544;51.032;5.866;2023-03-14T01:22:48;11.67;81.46
68556;HTU21D;55544;51.032;5.866;2023-03-14T01:25:17;11.68;81.26
68556;HTU21D;55544;51.032;5.866;2023-03-14T01:27:43;11.58;81.52
68556;HTU21D;55544;51.032;5.866;2023-03-14T01:30:11;11.62;81.04
68556;HTU21D;55544;51.032;5.866;2023-03-14T01:32:38;11.58;81.08
68556;HTU21D;55544;51.032;5.866;2023-03-14T01:35:05;11.57;80.91
68556;HTU21D;55544;51.032;5.866;2023-03-14T01:37:31;11.57;80.93
68556;HTU21D;55544;51.032;5.866;2023-03-14T01:39:57;11.53;81.09
68556;HTU21D;55544;51.032;5.866;2023-03-14T01:42:23;11.53;81.11
68556;HTU21D;55544;51.032;5.866;2023-03-14T01:45:00;11.62;80.67
68556;HTU21D;55544;51.032;5.866;2023-03-14T01:47:27;11.55;80.78
68556;HTU21D;55544;51.032;5.866;2023-03-14T01:49:57;11.55;80.64
68556;HTU21D;55544;51.032;5.866;2023-03-14T01:52:44;11.53;80.63
68556;HTU21D;55544;51.032;5.866;2023-03-14T01:55:25;11.57;80.40
68556;HTU21D;55544;51.032;5.866;2023-03-14T01:57:55;11.54;80.51
68556;HTU21D;55544;51.032;5.866;2023-03-14T02:00:23;11.58;80.49
68556;HTU21D;55544;51.032;5.866;2023-03-14T02:03:00;11.62;80.14
68556;HTU21D;55544;51.032;5.866;2023-03-14T02:05:32;11.56;80.34
68556;HTU21D;55544;51.032;5.866;2023-03-14T02:08:10;11.57;80.33
68556;HTU21D;55544;51.032;5.866;2023-03-14T02:10:48;11.53;80.37
68556;HTU21D;55544;51.032;5.866;2023-03-14T02:13:18;11.48;80.46
68556;HTU21D;55544;51.032;5.866;2023-03-14T02:16:01;11.54;80.36
68556;HTU21D;55544;51.032;5.866;2023-03-14T02:18:50;11.56;80.10
68556;HTU21D;55544;51.032;5.866;2023-03-14T02:21:55;11.64;79.56
68556;HTU21D;55544;51.032;5.866;2023-03-14T02:27:16;11.67;79.56
68556;HTU21D;55544;51.032;5.866;2023-03-14T02:29:54;11.69;79.59
68556;HTU21D;55544;51.032;5.866;2023-03-14T02:32:24;11.70;79.33
68556;HTU21D;55544;51.032;5.866;2023-03-14T02:34:54;11.73;79.30
68556;HTU21D;55544;51.032;5.866;2023-03-14T02:37:25;11.81;79.02
68556;HTU21D;55544;51.032;5.866;2023-03-14T02:39:52;11.82;78.95
68556;HTU21D;55544;51.032;5.866;2023-03-14T02:42:19;11.88;78.90
68556;HTU21D;55544;51.032;5.866;2023-03-14T02:44:55;11.88;79.07
68556;HTU21D;55544;51.032;5.866;2023-03-14T02:47:29;11.89;79.30
68556;HTU21D;55544;51.032;5.866;2023-03-14T02:50:02;11.82;79.75
68556;HTU21D;55544;51.032;5.866;2023-03-14T02:52:29;11.76;79.95
68556;HTU21D;55544;51.032;5.866;2023-03-14T02:54:55;11.78;79.77
68556;HTU21D;55544;51.032;5.866;2023-03-14T02:57:22;11.74;80.17
68556;HTU21D;55544;51.032;5.866;2023-03-14T02:59:47;11.64;80.43
68556;HTU21D;55544;51.032;5.866;2023-03-14T03:02:16;11.64;80.35
68556;HTU21D;55544;51.032;5.866;2023-03-14T03:04:42;11.54;80.92
68556;HTU21D;55544;51.032;5.866;2023-03-14T03:07:08;11.49;81.63
68556;HTU21D;55544;51.032;5.866;2023-03-14T03:09:33;11.31;82.68
68556;HTU21D;55544;51.032;5.866;2023-03-14T03:11:59;11.26;83.38
68556;HTU21D;55544;51.032;5.866;2023-03-14T03:14:27;11.31;83.71
68556;HTU21D;55544;51.032;5.866;2023-03-14T03:16:56;11.24;84.13
68556;HTU21D;55544;51.032;5.866;2023-03-14T03:19:22;11.15;84.66
68556;HTU21D;55544;51.032;5.866;2023-03-14T03:21:47;11.17;84.93
68556;HTU21D;55544;51.032;5.866;2023-03-14T03:24:13;11.10;85.13
68556;HTU21D;55544;51.032;5.866;2023-03-14T03:26:39;10.97;85.68
68556;HTU21D;55544;51.032;5.866;2023-03-14T03:29:07;11.00;85.82
68556;HTU21D;55544;51.032;5.866;2023-03-14T03:31:33;10.87;86.31
68556;HTU21D;55544;51.032;5.866;2023-03-14T03:34:01;10.87;86.51
68556;HTU21D;55544;51.032;5.866;2023-03-14T03:36:27;10.90;86.67
68556;HTU21D;55544;51.032;5.866;2023-03-14T03:38:53;10.90;86.66
68556;HTU21D;55544;51.032;5.866;2023-03-14T03:41:19;10.92;86.64
68556;HTU21D;55544;51.032;5.866;2023-03-14T03:43:47;10.92;86.90
68556;HTU21D;55544;51.032;5.866;2023-03-14T03:46:15;10.87;87.25
68556;HTU21D;55544;51.032;5.866;2023-03-14T03:48:40;10.86;87.44
68556;HTU21D;55544;51.032;5.866;2023-03-14T03:51:06;10.87;87.42
68556;HTU21D;55544;51.032;5.866;2023-03-14T03:53:33;10.94;87.34
68556;HTU21D;55544;51.032;5.866;2023-03-14T03:56:03;10.90;87.33
68556;HTU21D;55544;51.032;5.866;2023-03-14T03:58:29;10.86;87.52
68556;HTU21D;55544;51.032;5.866;2023-03-14T04:00:55;10.80;87.79
68556;HTU21D;55544;51.032;5.866;2023-03-14T04:03:21;10.80;88.24
68556;HTU21D;55544;51.032;5.866;2023-03-14T04:06:01;10.77;88.39
68556;HTU21D;55544;51.032;5.866;2023-03-14T04:08:28;10.75;88.67
68556;HTU21D;55544;51.032;5.866;2023-03-14T04:10:57;10.74;88.73
68556;HTU21D;55544;51.032;5.866;2023-03-14T04:13:36;10.81;88.80
68556;HTU21D;55544;51.032;5.866;2023-03-14T04:16:02;10.80;89.01
68556;HTU21D;55544;51.032;5.866;2023-03-14T04:18:28;10.86;88.87
68556;HTU21D;55544;51.032;5.866;2023-03-14T04:20:57;10.70;89.65
68556;HTU21D;55544;51.032;5.866;2023-03-14T04:23:28;10.73;90.04
68556;HTU21D;55544;51.032;5.866;2023-03-14T04:25:54;10.83;89.67
68556;HTU21D;55544;51.032;5.866;2023-03-14T04:28:21;10.89;89.51
68556;HTU21D;55544;51.032;5.866;2023-03-14T04:30:47;11.01;88.99
68556;HTU21D;55544;51.032;5.866;2023-03-14T04:33:19;11.01;89.05
68556;HTU21D;55544;51.032;5.866;2023-03-14T04:35:54;10.98;89.18
68556;HTU21D;55544;51.032;5.866;2023-03-14T04:38:20;11.01;88.70
68556;HTU21D;55544;51.032;5.866;2023-03-14T04:40:46;11.03;88.62
68556;HTU21D;55544;51.032;5.866;2023-03-14T04:43:13;11.10;88.32
68556;HTU21D;55544;51.032;5.866;2023-03-14T04:45:46;11.11;88.10
68556;HTU21D;55544;51.032;5.866;2023-03-14T04:48:12;11.02;88.14
68556;HTU21D;55544;51.032;5.866;2023-03-14T04:50:39;10.96;88.72
68556;HTU21D;55544;51.032;5.866;2023-03-14T04:53:05;11.07;88.38
68556;HTU21D;55544;51.032;5.866;2023-03-14T04:55:32;11.11;88.29
68556;HTU21D;55544;51.032;5.866;2023-03-14T04:57:59;11.10;88.21
68556;HTU21D;55544;51.032;5.866;2023-03-14T05:00:25;10.97;88.68
68556;HTU21D;55544;51.032;5.866;2023-03-14T05:03:12;11.03;88.26
68556;HTU21D;55544;51.032;5.866;2023-03-14T05:05:51;11.02;88.25
68556;HTU21D;55544;51.032;5.866;2023-03-14T05:08:35;11.02;88.07
68556;HTU21D;55544;51.032;5.866;2023-03-14T05:11:27;11.00;88.34
68556;HTU21D;55544;51.032;5.866;2023-03-14T05:14:01;10.98;88.22
68556;HTU21D;55544;51.032;5.866;2023-03-14T05:16:56;11.10;87.83
68556;HTU21D;55544;51.032;5.866;2023-03-14T05:19:37;11.05;88.10
68556;HTU21D;55544;51.032;5.866;2023-03-14T05:22:29;11.14;87.67
68556;HTU21D;55544;51.032;5.866;2023-03-14T05:25:17;11.16;87.65
68556;HTU21D;55544;51.032;5.866;2023-03-14T05:28:00;11.14;87.83
68556;HTU21D;55544;51.032;5.866;2023-03-14T05:30:48;11.15;87.59
68556;HTU21D;55544;51.032;5.866;2023-03-14T05:33:40;11.13;87.53
68556;HTU21D;55544;51.032;5.866;2023-03-14T05:36:23;10.99;88.09
68556;HTU21D;55544;51.032;5.866;2023-03-14T05:38:52;11.07;87.85
68556;HTU21D;55544;51.032;5.866;2023-03-14T05:41:36;10.99;88.17
68556;HTU21D;55544;51.032;5.866;2023-03-14T05:44:19;11.04;87.92
68556;HTU21D;55544;51.032;5.866;2023-03-14T05:47:01;11.02;88.04
68556;HTU21D;55544;51.032;5.866;2023-03-14T05:49:33;11.02;88.07
68556;HTU21D;55544;51.032;5.866;2023-03-14T05:52:17;11.02;88.12
68556;HTU21D;55544;51.032;5.866;2023-03-14T05:55:12;10.97;88.28
68556;HTU21D;55544;51.032;5.866;2023-03-14T05:57:56;11.05;87.70
68556;HTU21D;55544;51.032;5.866;2023-03-14T06:00:37;11.09;87.62
68556;HTU21D;55544;51.032;5.866;2023-03-14T06:03:22;11.01;87.80
68556;HTU21D;55544;51.032;5.866;2023-03-14T06:05:51;11.13;87.38
68556;HTU21D;55544;51.032;5.866;2023-03-14T06:08:18;11.09;87.56
68556;HTU21D;55544;51.032;5.866;2023-03-14T06:10:45;11.10;87.47
68556;HTU21D;55544;51.032;5.866;2023-03-14T06:13:11;11.13;87.47
68556;HTU21D;55544;51.032;5.866;2023-03-14T06:15:37;11.15;87.51
68556;HTU21D;55544;51.032;5.866;2023-03-14T06:18:03;11.07;88.12
68556;HTU21D;55544;51.032;5.866;2023-03-14T06:20:29;11.05;88.41
68556;HTU21D;55544;51.032;5.866;2023-03-14T06:22:55;11.08;88.37
68556;HTU21D;55544;51.032;5.866;2023-03-14T06:25:21;10.99;88.96
68556;HTU21D;55544;51.032;5.866;2023-03-14T06:27:47;11.10;88.63
68556;HTU21D;55544;51.032;5.866;2023-03-14T06:30:14;11.07;88.48
68556;HTU21D;55544;51.032;5.866;2023-03-14T06:32:40;11.07;88.83
68556;HTU21D;55544;51.032;5.866;2023-03-14T06:35:09;11.13;88.40
68556;HTU21D;55544;51.032;5.866;2023-03-14T06:37:39;11.15;88.54
68556;HTU21D;55544;51.032;5.866;2023-03-14T06:40:06;11.11;88.67
68556;HTU21D;55544;51.032;5.866;2023-03-14T06:43:08;11.09;89.02
68556;HTU21D;55544;51.032;5.866;2023-03-14T06:45:35;11.12;88.99
68556;HTU21D;55544;51.032;5.866;2023-03-14T06:48:03;11.16;88.80
68556;HTU21D;55544;51.032;5.866;2023-03-14T06:50:44;11.27;88.44
68556;HTU21D;55544;51.032;5.866;2023-03-14T06:53:10;11.25;88.38
68556;HTU21D;55544;51.032;5.866;2023-03-14T06:55:39;11.30;87.87
68556;HTU21D;55544;51.032;5.866;2023-03-14T06:58:06;11.38;87.63
68556;HTU21D;55544;51.032;5.866;2023-03-14T07:00:37;11.37;87.55
68556;HTU21D;55544;51.032;5.866;2023-03-14T07:03:03;11.34;87.58
68556;HTU21D;55544;51.032;5.866;2023-03-14T07:05:32;11.41;87.47
68556;HTU21D;55544;51.032;5.866;2023-03-14T07:07:58;11.46;87.27
68556;HTU21D;55544;51.032;5.866;2023-03-14T07:10:24;11.44;87.22
68556;HTU21D;55544;51.032;5.866;2023-03-14T07:12:50;11.52;87.22
68556;HTU21D;55544;51.032;5.866;2023-03-14T07:15:18;11.53;87.15
68556;HTU21D;55544;51.032;5.866;2023-03-14T07:17:43;11.61;86.91
68556;HTU21D;55544;51.032;5.866;2023-03-14T07:20:09;11.62;87.15
68556;HTU21D;55544;51.032;5.866;2023-03-14T07:22:35;11.69;86.51
68556;HTU21D;55544;51.032;5.866;2023-03-14T07:25:01;11.74;86.50
68556;HTU21D;55544;51.032;5.866;2023-03-14T07:27:27;11.73;86.58
68556;HTU21D;55544;51.032;5.866;2023-03-14T07:29:53;11.73;86.55
68556;HTU21D;55544;51.032;5.866;2023-03-14T07:32:19;11.75;86.72
68556;HTU21D;55544;51.032;5.866;2023-03-14T07:34:44;11.83;86.60
68556;HTU21D;55544;51.032;5.866;2023-03-14T07:37:10;11.90;85.92
68556;HTU21D;55544;51.032;5.866;2023-03-14T07:39:36;11.85;85.98
68556;HTU21D;55544;51.032;5.866;2023-03-14T07:42:13;11.77;86.63
68556;HTU21D;55544;51.032;5.866;2023-03-14T07:44:42;11.81;86.27
68556;HTU21D;55544;51.032;5.866;2023-03-14T07:47:07;11.86;85.99
68556;HTU21D;55544;51.032;5.866;2023-03-14T07:49:33;11.84;86.10
68556;HTU21D;55544;51.032;5.866;2023-03-14T07:51:59;11.87;86.06
68556;HTU21D;55544;51.032;5.866;2023-03-14T07:54:24;11.78;86.16
68556;HTU21D;55544;51.032;5.866;2023-03-14T07:56:51;11.87;85.84
68556;HTU21D;55544;51.032;5.866;2023-03-14T07:59:18;11.71;86.16
68556;HTU21D;55544;51.032;5.866;2023-03-14T08:01:44;11.62;86.83
68556;HTU21D;55544;51.032;5.866;2023-03-14T08:04:10;11.57;86.64
68556;HTU21D;55544;51.032;5.866;2023-03-14T08:06:36;11.57;86.33
68556;HTU21D;55544;51.032;5.866;2023-03-14T08:09:03;11.48;86.00
68556;HTU21D;55544;51.032;5.866;2023-03-14T08:11:30;11.48;86.03
68556;HTU21D;55544;51.032;5.866;2023-03-14T08:13:55;11.53;85.59
68556;HTU21D;55544;51.032;5.866;2023-03-14T08:16:22;11.47;85.39
68556;HTU21D;55544;51.032;5.866;2023-03-14T08:18:48;11.53;85.44
68556;HTU21D;55544;51.032;5.866;2023-03-14T08:21:13;11.48;85.73
68556;HTU21D;55544;51.032;5.866;2023-03-14T08:23:40;11.41;86.22
68556;HTU21D;55544;51.032;5.866;2023-03-14T08:26:06;11.32;85.93
68556;HTU21D;55544;51.032;5.866;2023-03-14T08:28:32;11.18;85.25
68556;HTU21D;55544;51.032;5.866;2023-03-14T08:30:59;11.03;84.34
68556;HTU21D;55544;51.032;5.866;2023-03-14T08:33:27;10.78;82.57
68556;HTU21D;55544;51.032;5.866;2023-03-14T08:35:59;10.67;82.20
68556;HTU21D;55544;51.032;5.866;2023-03-14T08:38:25;10.51;82.62
68556;HTU21D;55544;51.032;5.866;2023-03-14T08:41:01;10.49;81.64
68556;HTU21D;55544;51.032;5.866;2023-03-14T08:43:28;10.37;81.92
68556;HTU21D;55544;51.032;5.866;2023-03-14T08:45:58;10.24;82.78
68556;HTU21D;55544;51.032;5.866;2023-03-14T08:48:24;10.21;82.97
68556;HTU21D;55544;51.032;5.866;2023-03-14T08:50:49;10.22;82.55
68556;HTU21D;55544;51.032;5.866;2023-03-14T08:53:15;10.05;82.57
68556;HTU21D;55544;51.032;5.866;2023-03-14T08:55:41;10.03;81.78
68556;HTU21D;55544;51.032;5.866;2023-03-14T08:58:06;9.82;81.84
68556;HTU21D;55544;51.032;5.866;2023-03-14T09:00:32;9.86;82.70
68556;HTU21D;55544;51.032;5.866;2023-03-14T09:02:58;9.78;82.40
68556;HTU21D;55544;51.032;5.866;2023-03-14T09:05:23;9.76;82.41
68556;HTU21D;55544;51.032;5.866;2023-03-14T09:07:49;9.82;82.97
68556;HTU21D;55544;51.032;5.866;2023-03-14T09:10:15;9.86;83.09
68556;HTU21D;55544;51.032;5.866;2023-03-14T09:12:41;9.88;82.62
68556;HTU21D;55544;51.032;5.866;2023-03-14T09:15:07;9.86;82.46
68556;HTU21D;55544;51.032;5.866;2023-03-14T09:17:33;9.77;82.35
68556;HTU21D;55544;51.032;5.866;2023-03-14T09:19:58;9.64;82.44
68556;HTU21D;55544;51.032;5.866;2023-03-14T09:22:24;9.57;82.39
68556;HTU21D;55544;51.032;5.866;2023-03-14T09:24:50;9.60;82.66
68556;HTU21D;55544;51.032;5.866;2023-03-14T09:27:15;9.63;82.85
68556;HTU21D;55544;51.032;5.866;2023-03-14T09:29:41;9.66;82.54
68556;HTU21D;55544;51.032;5.866;2023-03-14T09:32:07;9.68;82.58
68556;HTU21D;55544;51.032;5.866;2023-03-14T09:34:32;9.75;82.42
68556;HTU21D;55544;51.032;5.866;2023-03-14T09:36:58;9.81;82.63
68556;HTU21D;55544;51.032;5.866;2023-03-14T09:39:25;9.81;82.56
68556;HTU21D;55544;51.032;5.866;2023-03-14T09:41:55;9.78;82.75
68556;HTU21D;55544;51.032;5.866;2023-03-14T09:44:42;9.74;82.09
68556;HTU21D;55544;51.032;5.866;2023-03-14T09:47:13;9.81;82.00
68556;HTU21D;55544;51.032;5.866;2023-03-14T09:49:40;9.77;82.00
68556;HTU21D;55544;51.032;5.866;2023-03-14T09:52:15;9.69;82.14
68556;HTU21D;55544;51.032;5.866;2023-03-14T09:54:50;9.74;82.57
68556;HTU21D;55544;51.032;5.866;2023-03-14T09:57:21;9.78;82.85
68556;HTU21D;55544;51.032;5.866;2023-03-14T09:59:50;9.89;82.37
68556;HTU21D;55544;51.032;5.866;2023-03-14T10:02:21;9.91;81.88
68556;HTU21D;55544;51.032;5.866;2023-03-14T10:04:49;9.91;82.26
68556;HTU21D;55544;51.032;5.866;2023-03-14T10:07:25;9.84;82.38
68556;HTU21D;55544;51.032;5.866;2023-03-14T10:09:55;9.85;82.48
68556;HTU21D;55544;51.032;5.866;2023-03-14T10:12:36;9.97;81.23
68556;HTU21D;55544;51.032;5.866;2023-03-14T10:15:09;10.01;81.23
68556;HTU21D;55544;51.032;5.866;2023-03-14T10:17:46;10.01;80.94
68556;HTU21D;55544;51.032;5.866;2023-03-14T10:23:05;10.15;79.52
68556;HTU21D;55544;51.032;5.866;2023-03-14T10:25:35;10.14;79.59
68556;HTU21D;55544;51.032;5.866;2023-03-14T10:28:02;10.16;80.01
68556;HTU21D;55544;51.032;5.866;2023-03-14T10:30:45;10.22;79.29
68556;HTU21D;55544;51.032;5.866;2023-03-14T10:35:52;10.09;77.89
68556;HTU21D;55544;51.032;5.866;2023-03-14T10:38:18;10.06;78.77
68556;HTU21D;55544;51.032;5.866;2023-03-14T10:40:50;10.11;78.27
68556;HTU21D;55544;51.032;5.866;2023-03-14T10:43:32;10.09;77.60
68556;HTU21D;55544;51.032;5.866;2023-03-14T10:46:19;10.09;77.09
68556;HTU21D;55544;51.032;5.866;2023-03-14T10:49:05;10.25;77.69
68556;HTU21D;55544;51.032;5.866;2023-03-14T10:51:31;10.30;77.39
68556;HTU21D;55544;51.032;5.866;2023-03-14T10:56:24;10.37;76.92
68556;HTU21D;55544;51.032;5.866;2023-03-14T10:58:53;10.37;76.99
68556;HTU21D;55544;51.032;5.866;2023-03-14T11:15:02;9.35;79.95
68556;HTU21D;55544;51.032;5.866;2023-03-14T11:17:41;9.31;80.07
68556;HTU21D;55544;51.032;5.866;2023-03-14T11:20:33;9.31;80.08
68556;HTU21D;55544;51.032;5.866;2023-03-14T11:28:58;9.42;79.29
68556;HTU21D;55544;51.032;5.866;2023-03-14T11:31:35;9.51;79.23
68556;HTU21D;55544;51.032;5.866;2023-03-14T11:36:52;9.66;78.71
68556;HTU21D;55544;51.032;5.866;2023-03-14T11:39:20;9.80;78.36
68556;HTU21D;55544;51.032;5.866;2023-03-14T11:41:57;9.99;78.37
68556;HTU21D;55544;51.032;5.866;2023-03-14T11:44:28;10.11;77.62
68556;HTU21D;55544;51.032;5.866;2023-03-14T11:47:20;10.19;76.70
68556;HTU21D;55544;51.032;5.866;2023-03-14T11:50:00;10.21;76.13
68556;HTU21D;55544;51.032;5.866;2023-03-14T11:58:27;10.12;75.47
68556;HTU21D;55544;51.032;5.866;2023-03-14T12:00:54;10.05;75.87
68556;HTU21D;55544;51.032;5.866;2023-03-14T12:04:05;10.09;75.40
68556;HTU21D;55544;51.032;5.866;2023-03-14T12:06:48;10.08;74.94
68556;HTU21D;55544;51.032;5.866;2023-03-14T12:09:17;10.07;74.14
68556;HTU21D;55544;51.032;5.866;2023-03-14T12:11:57;10.01;73.15
68556;HTU21D;55544;51.032;5.866;2023-03-14T12:14:27;10.00;72.81
68556;HTU21D;55544;51.032;5.866;2023-03-14T12:19:42;10.01;71.82
68556;HTU21D;55544;51.032;5.866;2023-03-14T12:22:26;9.95;70.68
68556;HTU21D;55544;51.032;5.866;2023-03-14T12:25:14;9.97;70.76
68556;HTU21D;55544;51.032;5.866;2023-03-14T12:35:56;10.12;70.21
68556;HTU21D;55544;51.032;5.866;2023-03-14T12:41:44;10.42;69.97
68556;HTU21D;55544;51.032;5.866;2023-03-14T12:49:45;10.56;68.72
68556;HTU21D;55544;51.032;5.866;2023-03-14T12:52:40;10.33;68.41
68556;HTU21D;55544;51.032;5.866;2023-03-14T12:55:35;10.11;68.01
68556;HTU21D;55544;51.032;5.866;2023-03-14T12:58:27;9.96;68.07
68556;HTU21D;55544;51.032;5.866;2023-03-14T13:01:04;9.74;68.69
68556;HTU21D;55544;51.032;5.866;2023-03-14T13:04:09;9.54;69.75
68556;HTU21D;55544;51.032;5.866;2023-03-14T13:06:50;9.44;70.12
68556;HTU21D;55544;51.032;5.866;2023-03-14T13:12:09;9.44;71.55
68556;HTU21D;55544;51.032;5.866;2023-03-14T13:14:43;9.57;71.42
68556;HTU21D;55544;51.032;5.866;2023-03-14T13:17:11;9.64;71.32
68556;HTU21D;55544;51.032;5.866;2023-03-14T13:19:38;9.70;70.53
68556;HTU21D;55544;51.032;5.866;2023-03-14T13:22:12;9.75;70.67
68556;HTU21D;55544;51.032;5.866;2023-03-14T13:24:40;9.71;70.59
68556;HTU21D;55544;51.032;5.866;2023-03-14T13:27:17;9.69;71.10
68556;HTU21D;55544;51.032;5.866;2023-03-14T13:29:44;9.83;71.84
68556;HTU21D;55544;51.032;5.866;2023-03-14T13:32:19;10.04;71.74
68556;HTU21D;55544;51.032;5.866;2023-03-14T13:34:45;10.20;71.19
68556;HTU21D;55544;51.032;5.866;2023-03-14T13:37:20;10.37;70.41
68556;HTU21D;55544;51.032;5.866;2023-03-14T13:39:54;10.42;69.21
68556;HTU21D;55544;51.032;5.866;2023-03-14T13:42:25;10.39;69.40
68556;HTU21D;55544;51.032;5.866;2023-03-14T13:44:53;10.49;69.71
68556;HTU21D;55544;51.032;5.866;2023-03-14T13:47:23;10.59;69.25
68556;HTU21D;55544;51.032;5.866;2023-03-14T13:49:50;10.62;68.74
68556;HTU21D;55544;51.032;5.866;2023-03-14T13:54:47;10.80;68.37
68556;HTU21D;55544;51.032;5.866;2023-03-14T13:57:13;10.82;67.80
68556;HTU21D;55544;51.032;5.866;2023-03-14T13:59:39;10.72;66.64
68556;HTU21D;55544;51.032;5.866;2023-03-14T14:02:13;10.65;66.67
68556;HTU21D;55544;51.032;5.866;2023-03-14T14:04:40;10.65;66.57
68556;HTU21D;55544;51.032;5.866;2023-03-14T14:07:09;10.63;66.32
68556;HTU21D;55544;51.032;5.866;2023-03-14T14:09:50;10.62;65.46
68556;HTU21D;55544;51.032;5.866;2023-03-14T14:12:26;10.59;64.92
68556;HTU21D;55544;51.032;5.866;2023-03-14T14:17:41;10.64;63.98
68556;HTU21D;55544;51.032;5.866;2023-03-14T14:20:29;10.58;63.55
68556;HTU21D;55544;51.032;5.866;2023-03-14T14:22:59;10.55;63.08
68556;HTU21D;55544;51.032;5.866;2023-03-14T14:25:26;10.57;63.50
68556;HTU21D;55544;51.032;5.866;2023-03-14T14:27:53;10.62;63.99
68556;HTU21D;55544;51.032;5.866;2023-03-14T14:32:50;10.77;63.23
68556;HTU21D;55544;51.032;5.866;2023-03-14T14:35:26;10.78;62.63
68556;HTU21D;55544;51.032;5.866;2023-03-14T14:37:56;10.78;62.54
68556;HTU21D;55544;51.032;5.866;2023-03-14T14:40:27;10.83;62.19
68556;HTU21D;55544;51.032;5.866;2023-03-14T14:42:55;10.89;62.03
68556;HTU21D;55544;51.032;5.866;2023-03-14T14:45:28;10.99;61.65
68556;HTU21D;55544;51.032;5.866;2023-03-14T14:48:14;11.03;61.57
68556;HTU21D;55544;51.032;5.866;2023-03-14T14:50:53;11.07;61.21
68556;HTU21D;55544;51.032;5.866;2023-03-14T14:55:51;11.07;61.12
68556;HTU21D;55544;51.032;5.866;2023-03-14T14:58:27;10.95;59.67
68556;HTU21D;55544;51.032;5.866;2023-03-14T15:03:34;10.80;58.71
68556;HTU21D;55544;51.032;5.866;2023-03-14T15:06:02;10.79;56.07
68556;HTU21D;55544;51.032;5.866;2023-03-14T15:08:28;10.80;54.01
68556;HTU21D;55544;51.032;5.866;2023-03-14T15:10:55;10.81;53.28
68556;HTU21D;55544;51.032;5.866;2023-03-14T15:13:21;10.82;52.50
68556;HTU21D;55544;51.032;5.866;2023-03-14T15:15:49;10.85;51.69
68556;HTU21D;55544;51.032;5.866;2023-03-14T15:18:17;10.89;50.17
68556;HTU21D;55544;51.032;5.866;2023-03-14T15:20:45;10.82;49.62
68556;HTU21D;55544;51.032;5.866;2023-03-14T15:23:13;10.71;48.94
68556;HTU21D;55544;51.032;5.866;2023-03-14T15:25:39;10.70;48.26
68556;HTU21D;55544;51.032;5.866;2023-03-14T15:28:15;10.57;47.67
68556;HTU21D;55544;51.032;5.866;2023-03-14T15:30:41;10.53;47.85
68556;HTU21D;55544;51.032;5.866;2023-03-14T15:33:07;10.57;48.41
68556;HTU21D;55544;51.032;5.866;2023-03-14T15:35:36;10.55;48.20
68556;HTU21D;55544;51.032;5.866;2023-03-14T15:38:02;10.50;48.70
68556;HTU21D;55544;51.032;5.866;2023-03-14T15:40:28;10.48;49.05
68556;HTU21D;55544;51.032;5.866;2023-03-14T15:42:54;10.48;49.24
68556;HTU21D;55544;51.032;5.866;2023-03-14T15:45:20;10.40;48.66
68556;HTU21D;55544;51.032;5.866;2023-03-14T15:47:45;10.24;46.78
68556;HTU21D;55544;51.032;5.866;2023-03-14T15:50:11;10.16;47.81
68556;HTU21D;55544;51.032;5.866;2023-03-14T15:52:37;10.08;48.07
68556;HTU21D;55544;51.032;5.866;2023-03-14T15:55:03;10.08;48.45
68556;HTU21D;55544;51.032;5.866;2023-03-14T15:57:29;10.11;48.60
68556;HTU21D;55544;51.032;5.866;2023-03-14T15:59:55;10.03;48.14
68556;HTU21D;55544;51.032;5.866;2023-03-14T16:02:21;10.00;47.65
68556;HTU21D;55544;51.032;5.866;2023-03-14T16:04:47;9.91;47.83
68556;HTU21D;55544;51.032;5.866;2023-03-14T16:07:13;9.90;48.47
68556;HTU21D;55544;51.032;5.866;2023-03-14T16:09:39;9.86;48.63
68556;HTU21D;55544;51.032;5.866;2023-03-14T16:12:04;9.85;49.61
68556;HTU21D;55544;51.032;5.866;2023-03-14T16:14:32;9.88;49.85
68556;HTU21D;55544;51.032;5.866;2023-03-14T16:16:58;9.86;49.92
68556;HTU21D;55544;51.032;5.866;2023-03-14T16:19:25;9.86;49.12
68556;HTU21D;55544;51.032;5.866;2023-03-14T16:21:56;9.83;48.17
68556;HTU21D;55544;51.032;5.866;2023-03-14T16:24:21;9.80;46.61
68556;HTU21D;55544;51.032;5.866;2023-03-14T16:26:47;9.75;46.20
68556;HTU21D;55544;51.032;5.866;2023-03-14T16:29:13;9.69;46.12
68556;HTU21D;55544;51.032;5.866;2023-03-14T16:31:39;9.59;46.46
68556;HTU21D;55544;51.032;5.866;2023-03-14T16:34:10;9.55;46.97
68556;HTU21D;55544;51.032;5.866;2023-03-14T16:36:36;9.49;47.58
68556;HTU21D;55544;51.032;5.866;2023-03-14T16:39:02;9.47;48.02
68556;HTU21D;55544;51.032;5.866;2023-03-14T16:41:28;9.40;47.86
68556;HTU21D;55544;51.032;5.866;2023-03-14T16:43:57;9.39;48.38
68556;HTU21D;55544;51.032;5.866;2023-03-14T16:46:23;9.37;48.68
68556;HTU21D;55544;51.032;5.866;2023-03-14T16:48:50;9.30;47.59
68556;HTU21D;55544;51.032;5.866;2023-03-14T16:51:16;9.18;47.83
68556;HTU21D;55544;51.032;5.866;2023-03-14T16:53:43;9.11;48.21
68556;HTU21D;55544;51.032;5.866;2023-03-14T16:56:09;9.08;48.31